sensor_id;sensor_type;location;lat;lon;timestamp;temperature;humidity
837;DHT22;400;53.550;9.932;2023-05-07T00:00:28;11.30;99.90
837;DHT22;400;53.550;9.932;2023-05-07T00:02:55;11.30;99.90
837;DHT22;400;53.550;9.932;2023-05-07T00:05:23;11.30;99.90
837;DHT22;400;53.550;9.932;2023-05-07T00:07:55;11.30;99.90
837;DHT22;400;53.550;9.932;2023-05-07T00:10:22;11.30;99.90
837;DHT22;400;53.550;9.932;2023-05-07T00:12:49;11.20;99.90
837;DHT22;400;53.550;9.932;2023-05-07T00:15:18;11.20;99.90
837;DHT22;400;53.550;9.932;2023-05-07T00:17:46;11.20;99.90
837;DHT22;400;53.550;9.932;2023-05-07T00:20:17;11.30;99.90
837;DHT22;400;53.550;9.932;2023-05-07T00:22:46;11.30;99.90
837;DHT22;400;53.550;9.932;2023-05-07T00:25:14;11.30;99.90
837;DHT22;400;53.550;9.932;2023-05-07T00:27:41;11.20;99.90
837;DHT22;400;53.550;9.932;2023-05-07T00:30:09;11.20;99.90
837;DHT22;400;53.550;9.932;2023-05-07T00:32:37;11.20;99.90
837;DHT22;400;53.550;9.932;2023-05-07T00:35:04;11.00;99.90
837;DHT22;400;53.550;9.932;2023-05-07T00:37:31;11.00;99.90
837;DHT22;400;53.550;9.932;2023-05-07T00:40:01;11.00;99.90
837;DHT22;400;53.550;9.932;2023-05-07T00:42:31;10.90;99.90
837;DHT22;400;53.550;9.932;2023-05-07T00:44:58;10.90;99.90
837;DHT22;400;53.550;9.932;2023-05-07T00:47:25;10.90;99.90
837;DHT22;400;53.550;9.932;2023-05-07T00:49:52;10.90;99.90
837;DHT22;400;53.550;9.932;2023-05-07T00:52:21;10.90;99.90
837;DHT22;400;53.550;9.932;2023-05-07T00:54:50;11.00;99.90
837;DHT22;400;53.550;9.932;2023-05-07T00:57:17;11.00;99.90
837;DHT22;400;53.550;9.932;2023-05-07T00:59:45;10.90;99.90
837;DHT22;400;53.550;9.932;2023-05-07T01:02:12;10.90;99.90
837;DHT22;400;53.550;9.932;2023-05-07T01:04:39;10.90;99.90
837;DHT22;400;53.550;9.932;2023-05-07T01:07:06;10.90;99.90
837;DHT22;400;53.550;9.932;2023-05-07T01:09:34;11.00;99.90
837;DHT22;400;53.550;9.932;2023-05-07T01:12:03;10.90;99.90
837;DHT22;400;53.550;9.932;2023-05-07T01:14:31;10.90;99.90
837;DHT22;400;53.550;9.932;2023-05-07T01:17:02;10.90;99.90
837;DHT22;400;53.550;9.932;2023-05-07T01:19:30;10.90;99.90
837;DHT22;400;53.550;9.932;2023-05-07T01:22:02;10.90;99.90
837;DHT22;400;53.550;9.932;2023-05-07T01:24:33;11.00;99.90
837;DHT22;400;53.550;9.932;2023-05-07T01:27:00;11.00;99.90
837;DHT22;400;53.550;9.932;2023-05-07T01:29:28;11.00;99.90
837;DHT22;400;53.550;9.932;2023-05-07T01:31:57;11.10;99.90
837;DHT22;400;53.550;9.932;2023-05-07T01:34:26;11.00;99.90
837;DHT22;400;53.550;9.932;2023-05-07T01:36:56;11.10;99.90
837;DHT22;400;53.550;9.932;2023-05-07T01:39:27;11.10;99.90
837;DHT22;400;53.550;9.932;2023-05-07T01:41:56;11.10;99.90
837;DHT22;400;53.550;9.932;2023-05-07T01:44:25;11.00;99.90
837;DHT22;400;53.550;9.932;2023-05-07T01:46:55;11.00;99.90
837;DHT22;400;53.550;9.932;2023-05-07T01:49:24;11.00;99.90
837;DHT22;400;53.550;9.932;2023-05-07T01:51:51;11.00;99.90
837;DHT22;400;53.550;9.932;2023-05-07T01:54:18;11.00;99.90
837;DHT22;400;53.550;9.932;2023-05-07T01:56:46;10.90;99.90
837;DHT22;400;53.550;9.932;2023-05-07T01:59:15;10.90;99.90
837;DHT22;400;53.550;9.932;2023-05-07T02:01:42;10.90;99.90
837;DHT22;400;53.550;9.932;2023-05-07T02:04:09;10.90;99.90
837;DHT22;400;53.550;9.932;2023-05-07T02:06:36;10.90;99.90
837;DHT22;400;53.550;9.932;2023-05-07T02:09:03;10.90;99.90
837;DHT22;400;53.550;9.932;2023-05-07T02:11:30;10.90;99.90
837;DHT22;400;53.550;9.932;2023-05-07T02:13:57;11.00;99.90
837;DHT22;400;53.550;9.932;2023-05-07T02:16:25;11.00;99.90
837;DHT22;400;53.550;9.932;2023-05-07T02:18:52;11.00;99.90
837;DHT22;400;53.550;9.932;2023-05-07T02:21:19;10.90;99.90
837;DHT22;400;53.550;9.932;2023-05-07T02:23:46;10.90;99.90
837;DHT22;400;53.550;9.932;2023-05-07T02:26:12;10.90;99.90
837;DHT22;400;53.550;9.932;2023-05-07T02:28:39;10.90;99.90
837;DHT22;400;53.550;9.932;2023-05-07T02:31:08;10.90;99.90
837;DHT22;400;53.550;9.932;2023-05-07T02:33:36;10.90;99.90
837;DHT22;400;53.550;9.932;2023-05-07T02:36:06;10.90;99.90
837;DHT22;400;53.550;9.932;2023-05-07T02:38:34;11.00;99.90
837;DHT22;400;53.550;9.932;2023-05-07T02:41:01;10.90;99.90
837;DHT22;400;53.550;9.932;2023-05-07T02:43:28;11.00;99.90
837;DHT22;400;53.550;9.932;2023-05-07T02:46:01;11.00;99.90
837;DHT22;400;53.550;9.932;2023-05-07T02:48:29;11.00;99.90
837;DHT22;400;53.550;9.932;2023-05-07T02:50:57;11.10;99.90
837;DHT22;400;53.550;9.932;2023-05-07T02:53:24;11.10;99.90
837;DHT22;400;53.550;9.932;2023-05-07T02:55:52;11.10;99.90
837;DHT22;400;53.550;9.932;2023-05-07T02:58:19;11.10;99.90
837;DHT22;400;53.550;9.932;2023-05-07T03:00:47;11.10;99.90
837;DHT22;400;53.550;9.932;2023-05-07T03:03:14;11.20;99.90
837;DHT22;400;53.550;9.932;2023-05-07T03:05:41;11.20;99.90
837;DHT22;400;53.550;9.932;2023-05-07T03:08:09;11.10;99.90
837;DHT22;400;53.550;9.932;2023-05-07T03:10:37;11.10;99.90
837;DHT22;400;53.550;9.932;2023-05-07T03:13:04;11.10;99.90
837;DHT22;400;53.550;9.932;2023-05-07T03:15:31;11.10;99.90
837;DHT22;400;53.550;9.932;2023-05-07T03:17:59;11.10;99.90
837;DHT22;400;53.550;9.932;2023-05-07T03:20:25;11.00;99.90
837;DHT22;400;53.550;9.932;2023-05-07T03:22:52;11.00;99.90
837;DHT22;400;53.550;9.932;2023-05-07T03:25:21;11.10;99.90
837;DHT22;400;53.550;9.932;2023-05-07T03:27:47;11.00;99.90
837;DHT22;400;53.550;9.932;2023-05-07T03:30:14;11.00;99.90
837;DHT22;400;53.550;9.932;2023-05-07T03:32:41;11.10;99.90
837;DHT22;400;53.550;9.932;2023-05-07T03:35:10;11.00;99.90
837;DHT22;400;53.550;9.932;2023-05-07T03:37:42;11.00;99.90
837;DHT22;400;53.550;9.932;2023-05-07T03:40:11;11.00;99.90
837;DHT22;400;53.550;9.932;2023-05-07T03:42:40;11.10;99.90
837;DHT22;400;53.550;9.932;2023-05-07T03:45:08;11.00;99.90
837;DHT22;400;53.550;9.932;2023-05-07T03:47:35;11.00;99.90
837;DHT22;400;53.550;9.932;2023-05-07T03:50:02;11.00;99.90
837;DHT22;400;53.550;9.932;2023-05-07T03:52:29;11.00;99.90
837;DHT22;400;53.550;9.932;2023-05-07T03:54:56;11.00;99.90
837;DHT22;400;53.550;9.932;2023-05-07T03:57:23;10.90;99.90
837;DHT22;400;53.550;9.932;2023-05-07T03:59:51;11.00;99.90
837;DHT22;400;53.550;9.932;2023-05-07T04:02:18;11.00;99.90
837;DHT22;400;53.550;9.932;2023-05-07T04:04:48;11.00;99.90
837;DHT22;400;53.550;9.932;2023-05-07T04:07:16;11.00;99.90
837;DHT22;400;53.550;9.932;2023-05-07T04:09:42;11.00;99.90
837;DHT22;400;53.550;9.932;2023-05-07T04:12:11;11.00;99.90
837;DHT22;400;53.550;9.932;2023-05-07T04:14:38;11.00;99.90
837;DHT22;400;53.550;9.932;2023-05-07T04:17:06;10.90;99.90
837;DHT22;400;53.550;9.932;2023-05-07T04:19:35;10.90;99.90
837;DHT22;400;53.550;9.932;2023-05-07T04:22:02;10.90;99.90
837;DHT22;400;53.550;9.932;2023-05-07T04:24:31;10.90;99.90
837;DHT22;400;53.550;9.932;2023-05-07T04:26:58;10.90;99.90
837;DHT22;400;53.550;9.932;2023-05-07T04:29:25;10.90;99.90
837;DHT22;400;53.550;9.932;2023-05-07T04:31:52;11.00;99.90
837;DHT22;400;53.550;9.932;2023-05-07T04:34:22;11.00;99.90
837;DHT22;400;53.550;9.932;2023-05-07T04:36:49;11.00;99.90
837;DHT22;400;53.550;9.932;2023-05-07T04:39:16;11.00;99.90
837;DHT22;400;53.550;9.932;2023-05-07T04:41:43;11.00;99.90
837;DHT22;400;53.550;9.932;2023-05-07T04:44:10;11.00;99.90
837;DHT22;400;53.550;9.932;2023-05-07T04:46:37;11.10;99.90
837;DHT22;400;53.550;9.932;2023-05-07T04:49:04;11.20;99.90
837;DHT22;400;53.550;9.932;2023-05-07T04:51:32;11.20;99.90
837;DHT22;400;53.550;9.932;2023-05-07T04:54:02;11.20;99.90
837;DHT22;400;53.550;9.932;2023-05-07T04:56:34;11.10;99.90
837;DHT22;400;53.550;9.932;2023-05-07T04:59:09;11.20;99.90
837;DHT22;400;53.550;9.932;2023-05-07T05:01:36;11.20;99.90
837;DHT22;400;53.550;9.932;2023-05-07T05:04:03;11.10;99.90
837;DHT22;400;53.550;9.932;2023-05-07T05:06:31;11.20;99.90
837;DHT22;400;53.550;9.932;2023-05-07T05:08:58;11.10;99.90
837;DHT22;400;53.550;9.932;2023-05-07T05:11:25;11.10;99.90
837;DHT22;400;53.550;9.932;2023-05-07T05:13:52;11.20;99.90
837;DHT22;400;53.550;9.932;2023-05-07T05:16:19;11.20;99.90
837;DHT22;400;53.550;9.932;2023-05-07T05:18:45;11.10;99.90
837;DHT22;400;53.550;9.932;2023-05-07T05:21:12;11.20;99.90
837;DHT22;400;53.550;9.932;2023-05-07T05:23:41;11.30;99.90
837;DHT22;400;53.550;9.932;2023-05-07T05:26:08;11.10;99.90
837;DHT22;400;53.550;9.932;2023-05-07T05:28:34;11.10;99.90
837;DHT22;400;53.550;9.932;2023-05-07T05:31:01;11.20;99.90
837;DHT22;400;53.550;9.932;2023-05-07T05:33:30;11.20;99.90
837;DHT22;400;53.550;9.932;2023-05-07T05:35:57;11.10;99.90
837;DHT22;400;53.550;9.932;2023-05-07T05:38:24;11.10;99.90
837;DHT22;400;53.550;9.932;2023-05-07T05:40:52;11.00;99.90
837;DHT22;400;53.550;9.932;2023-05-07T05:43:19;11.10;99.90
837;DHT22;400;53.550;9.932;2023-05-07T05:45:46;11.20;99.90
837;DHT22;400;53.550;9.932;2023-05-07T05:48:13;11.10;99.90
837;DHT22;400;53.550;9.932;2023-05-07T05:50:41;11.20;99.90
837;DHT22;400;53.550;9.932;2023-05-07T05:53:08;11.30;99.90
837;DHT22;400;53.550;9.932;2023-05-07T05:55:35;11.30;99.90
837;DHT22;400;53.550;9.932;2023-05-07T05:58:03;11.30;99.90
837;DHT22;400;53.550;9.932;2023-05-07T06:00:31;11.30;99.90
837;DHT22;400;53.550;9.932;2023-05-07T06:02:58;11.30;99.90
837;DHT22;400;53.550;9.932;2023-05-07T06:05:26;11.30;99.90
837;DHT22;400;53.550;9.932;2023-05-07T06:07:52;11.30;99.90
837;DHT22;400;53.550;9.932;2023-05-07T06:10:19;11.30;99.90
837;DHT22;400;53.550;9.932;2023-05-07T06:12:46;11.30;99.90
837;DHT22;400;53.550;9.932;2023-05-07T06:15:14;11.30;99.90
837;DHT22;400;53.550;9.932;2023-05-07T06:17:41;11.30;99.90
837;DHT22;400;53.550;9.932;2023-05-07T06:20:10;11.30;99.90
837;DHT22;400;53.550;9.932;2023-05-07T06:22:37;11.30;99.90
837;DHT22;400;53.550;9.932;2023-05-07T06:25:05;11.40;99.90
837;DHT22;400;53.550;9.932;2023-05-07T06:27:32;11.40;99.90
837;DHT22;400;53.550;9.932;2023-05-07T06:30:02;11.50;99.90
837;DHT22;400;53.550;9.932;2023-05-07T06:32:30;11.50;99.90
837;DHT22;400;53.550;9.932;2023-05-07T06:34:57;11.60;99.90
837;DHT22;400;53.550;9.932;2023-05-07T06:37:24;11.60;99.90
837;DHT22;400;53.550;9.932;2023-05-07T06:39:51;11.60;99.90
837;DHT22;400;53.550;9.932;2023-05-07T06:42:18;11.50;99.90
837;DHT22;400;53.550;9.932;2023-05-07T06:44:45;11.50;99.90
837;DHT22;400;53.550;9.932;2023-05-07T06:47:12;11.60;99.90
837;DHT22;400;53.550;9.932;2023-05-07T06:49:42;11.60;99.90
837;DHT22;400;53.550;9.932;2023-05-07T06:52:09;11.60;99.90
837;DHT22;400;53.550;9.932;2023-05-07T06:54:36;11.70;99.90
837;DHT22;400;53.550;9.932;2023-05-07T06:57:03;11.70;99.90
837;DHT22;400;53.550;9.932;2023-05-07T06:59:29;11.70;99.90
837;DHT22;400;53.550;9.932;2023-05-07T07:01:56;11.70;99.90
837;DHT22;400;53.550;9.932;2023-05-07T07:04:24;11.80;99.90
837;DHT22;400;53.550;9.932;2023-05-07T07:06:54;11.80;99.90
837;DHT22;400;53.550;9.932;2023-05-07T07:09:23;11.90;99.90
837;DHT22;400;53.550;9.932;2023-05-07T07:11:50;11.90;99.90
837;DHT22;400;53.550;9.932;2023-05-07T07:14:17;11.90;99.90
837;DHT22;400;53.550;9.932;2023-05-07T07:16:44;11.90;99.90
837;DHT22;400;53.550;9.932;2023-05-07T07:19:12;12.00;99.90
837;DHT22;400;53.550;9.932;2023-05-07T07:21:40;12.00;99.90
837;DHT22;400;53.550;9.932;2023-05-07T07:24:08;11.90;99.90
837;DHT22;400;53.550;9.932;2023-05-07T07:26:36;11.90;99.90
837;DHT22;400;53.550;9.932;2023-05-07T07:29:02;11.90;99.90
837;DHT22;400;53.550;9.932;2023-05-07T07:31:29;11.90;99.90
837;DHT22;400;53.550;9.932;2023-05-07T07:33:56;11.90;99.90
837;DHT22;400;53.550;9.932;2023-05-07T07:36:24;12.00;99.90
837;DHT22;400;53.550;9.932;2023-05-07T07:38:52;12.10;99.90
837;DHT22;400;53.550;9.932;2023-05-07T07:41:20;12.10;99.90
837;DHT22;400;53.550;9.932;2023-05-07T07:43:47;12.20;99.90
837;DHT22;400;53.550;9.932;2023-05-07T07:46:14;12.20;99.90
837;DHT22;400;53.550;9.932;2023-05-07T07:48:41;12.20;99.90
837;DHT22;400;53.550;9.932;2023-05-07T07:51:08;12.30;99.90
837;DHT22;400;53.550;9.932;2023-05-07T07:53:35;12.40;99.90
837;DHT22;400;53.550;9.932;2023-05-07T07:56:02;12.40;99.90
837;DHT22;400;53.550;9.932;2023-05-07T07:58:31;12.30;99.90
837;DHT22;400;53.550;9.932;2023-05-07T08:00:57;12.30;99.90
837;DHT22;400;53.550;9.932;2023-05-07T08:03:25;12.30;99.90
837;DHT22;400;53.550;9.932;2023-05-07T08:05:52;12.30;99.90
837;DHT22;400;53.550;9.932;2023-05-07T08:08:19;12.40;99.90
837;DHT22;400;53.550;9.932;2023-05-07T08:10:46;12.50;99.90
837;DHT22;400;53.550;9.932;2023-05-07T08:13:17;12.50;99.90
837;DHT22;400;53.550;9.932;2023-05-07T08:15:45;12.60;99.90
837;DHT22;400;53.550;9.932;2023-05-07T08:18:12;12.60;99.90
837;DHT22;400;53.550;9.932;2023-05-07T08:20:40;12.60;99.90
837;DHT22;400;53.550;9.932;2023-05-07T08:23:08;12.60;99.90
837;DHT22;400;53.550;9.932;2023-05-07T08:25:35;12.50;99.90
837;DHT22;400;53.550;9.932;2023-05-07T08:28:03;12.60;99.90
837;DHT22;400;53.550;9.932;2023-05-07T08:30:32;12.60;99.90
837;DHT22;400;53.550;9.932;2023-05-07T08:33:04;12.60;99.90
837;DHT22;400;53.550;9.932;2023-05-07T08:35:32;12.70;99.90
837;DHT22;400;53.550;9.932;2023-05-07T08:37:59;12.70;99.90
837;DHT22;400;53.550;9.932;2023-05-07T08:40:26;12.60;99.90
837;DHT22;400;53.550;9.932;2023-05-07T08:42:54;12.60;99.90
837;DHT22;400;53.550;9.932;2023-05-07T08:45:23;12.70;99.90
837;DHT22;400;53.550;9.932;2023-05-07T08:47:52;12.70;99.90
837;DHT22;400;53.550;9.932;2023-05-07T08:50:23;12.80;99.90
837;DHT22;400;53.550;9.932;2023-05-07T08:52:53;12.80;99.90
837;DHT22;400;53.550;9.932;2023-05-07T08:55:25;12.70;99.90
837;DHT22;400;53.550;9.932;2023-05-07T08:57:54;12.70;99.90
837;DHT22;400;53.550;9.932;2023-05-07T09:00:21;12.70;99.90
837;DHT22;400;53.550;9.932;2023-05-07T09:02:48;12.90;99.90
837;DHT22;400;53.550;9.932;2023-05-07T09:05:15;12.90;99.90
837;DHT22;400;53.550;9.932;2023-05-07T09:07:46;12.90;99.90
837;DHT22;400;53.550;9.932;2023-05-07T09:10:20;13.10;99.90
837;DHT22;400;53.550;9.932;2023-05-07T09:12:47;13.00;99.90
837;DHT22;400;53.550;9.932;2023-05-07T09:15:16;13.10;99.90
837;DHT22;400;53.550;9.932;2023-05-07T09:17:43;13.20;99.90
837;DHT22;400;53.550;9.932;2023-05-07T09:20:11;13.20;99.90
837;DHT22;400;53.550;9.932;2023-05-07T09:22:38;13.30;99.90
837;DHT22;400;53.550;9.932;2023-05-07T09:25:07;13.40;99.90
837;DHT22;400;53.550;9.932;2023-05-07T09:27:35;13.50;99.90
837;DHT22;400;53.550;9.932;2023-05-07T09:30:11;13.50;99.90
837;DHT22;400;53.550;9.932;2023-05-07T09:32:38;13.50;99.90
837;DHT22;400;53.550;9.932;2023-05-07T09:35:05;13.50;99.90
837;DHT22;400;53.550;9.932;2023-05-07T09:37:33;13.50;99.90
837;DHT22;400;53.550;9.932;2023-05-07T09:40:00;13.60;99.90
837;DHT22;400;53.550;9.932;2023-05-07T09:42:29;13.60;99.90
837;DHT22;400;53.550;9.932;2023-05-07T09:44:56;13.70;99.90
837;DHT22;400;53.550;9.932;2023-05-07T09:47:24;13.70;99.90
837;DHT22;400;53.550;9.932;2023-05-07T09:49:55;13.80;99.90
837;DHT22;400;53.550;9.932;2023-05-07T09:52:23;13.70;99.90
837;DHT22;400;53.550;9.932;2023-05-07T09:54:56;13.70;99.90
837;DHT22;400;53.550;9.932;2023-05-07T09:57:26;13.80;99.90
837;DHT22;400;53.550;9.932;2023-05-07T09:59:57;13.70;99.90
837;DHT22;400;53.550;9.932;2023-05-07T10:02:26;13.90;99.90
837;DHT22;400;53.550;9.932;2023-05-07T10:04:55;14.00;99.90
837;DHT22;400;53.550;9.932;2023-05-07T10:07:24;14.00;99.90
837;DHT22;400;53.550;9.932;2023-05-07T10:09:52;14.00;99.90
837;DHT22;400;53.550;9.932;2023-05-07T10:12:19;14.00;99.90
837;DHT22;400;53.550;9.932;2023-05-07T10:14:47;14.00;99.90
837;DHT22;400;53.550;9.932;2023-05-07T10:17:17;14.00;99.90
837;DHT22;400;53.550;9.932;2023-05-07T10:19:45;14.00;99.90
837;DHT22;400;53.550;9.932;2023-05-07T10:22:14;14.10;99.90
837;DHT22;400;53.550;9.932;2023-05-07T10:24:43;14.10;99.90
837;DHT22;400;53.550;9.932;2023-05-07T10:27:12;14.20;99.90
837;DHT22;400;53.550;9.932;2023-05-07T10:29:52;14.30;99.90
837;DHT22;400;53.550;9.932;2023-05-07T10:32:35;14.30;99.90
837;DHT22;400;53.550;9.932;2023-05-07T10:35:13;14.40;99.90
837;DHT22;400;53.550;9.932;2023-05-07T10:37:47;14.50;99.90
837;DHT22;400;53.550;9.932;2023-05-07T10:40:14;14.50;99.90
837;DHT22;400;53.550;9.932;2023-05-07T10:43:03;14.50;99.90
837;DHT22;400;53.550;9.932;2023-05-07T10:45:41;14.50;99.90
837;DHT22;400;53.550;9.932;2023-05-07T10:48:14;14.50;99.90
837;DHT22;400;53.550;9.932;2023-05-07T10:50:44;14.60;99.90
837;DHT22;400;53.550;9.932;2023-05-07T10:53:21;14.50;99.90
837;DHT22;400;53.550;9.932;2023-05-07T10:56:23;14.50;99.90
837;DHT22;400;53.550;9.932;2023-05-07T10:58:45;14.60;99.90
837;DHT22;400;53.550;9.932;2023-05-07T11:01:12;14.60;99.90
837;DHT22;400;53.550;9.932;2023-05-07T11:04:15;14.70;99.90
837;DHT22;400;53.550;9.932;2023-05-07T11:07:24;14.80;99.90
837;DHT22;400;53.550;9.932;2023-05-07T11:09:59;14.80;99.90
837;DHT22;400;53.550;9.932;2023-05-07T11:12:49;14.80;99.90
837;DHT22;400;53.550;9.932;2023-05-07T11:15:37;15.00;99.90
837;DHT22;400;53.550;9.932;2023-05-07T11:18:07;15.00;99.90
837;DHT22;400;53.550;9.932;2023-05-07T11:20:53;15.10;99.90
837;DHT22;400;53.550;9.932;2023-05-07T11:26:45;15.20;99.90
837;DHT22;400;53.550;9.932;2023-05-07T11:29:15;15.30;99.90
837;DHT22;400;53.550;9.932;2023-05-07T11:31:49;15.50;99.90
837;DHT22;400;53.550;9.932;2023-05-07T11:34:26;15.50;99.90
837;DHT22;400;53.550;9.932;2023-05-07T11:36:59;15.60;99.90
837;DHT22;400;53.550;9.932;2023-05-07T11:39:28;15.60;99.90
837;DHT22;400;53.550;9.932;2023-05-07T11:41:57;15.60;99.90
837;DHT22;400;53.550;9.932;2023-05-07T11:44:24;15.60;99.90
837;DHT22;400;53.550;9.932;2023-05-07T11:46:51;15.50;99.90
837;DHT22;400;53.550;9.932;2023-05-07T11:49:19;15.60;99.90
837;DHT22;400;53.550;9.932;2023-05-07T11:51:49;15.50;99.90
837;DHT22;400;53.550;9.932;2023-05-07T11:54:21;15.60;99.90
837;DHT22;400;53.550;9.932;2023-05-07T11:56:50;15.50;99.90
837;DHT22;400;53.550;9.932;2023-05-07T11:59:21;15.50;99.90
837;DHT22;400;53.550;9.932;2023-05-07T12:01:49;15.70;99.90
837;DHT22;400;53.550;9.932;2023-05-07T12:04:19;15.70;99.90
837;DHT22;400;53.550;9.932;2023-05-07T12:06:47;15.70;99.90
837;DHT22;400;53.550;9.932;2023-05-07T12:09:17;15.60;99.90
837;DHT22;400;53.550;9.932;2023-05-07T12:11:48;15.60;99.90
837;DHT22;400;53.550;9.932;2023-05-07T12:14:19;15.60;99.90
837;DHT22;400;53.550;9.932;2023-05-07T12:16:52;15.70;99.90
837;DHT22;400;53.550;9.932;2023-05-07T12:19:24;15.80;99.90
837;DHT22;400;53.550;9.932;2023-05-07T12:21:55;15.90;99.90
837;DHT22;400;53.550;9.932;2023-05-07T12:24:22;16.00;99.90
837;DHT22;400;53.550;9.932;2023-05-07T12:26:50;16.10;99.90
837;DHT22;400;53.550;9.932;2023-05-07T12:29:23;16.20;99.90
837;DHT22;400;53.550;9.932;2023-05-07T12:31:53;16.20;99.90
837;DHT22;400;53.550;9.932;2023-05-07T12:34:22;16.00;99.90
837;DHT22;400;53.550;9.932;2023-05-07T12:36:49;16.10;99.90
837;DHT22;400;53.550;9.932;2023-05-07T12:39:16;16.10;99.90
837;DHT22;400;53.550;9.932;2023-05-07T12:41:57;16.00;99.90
837;DHT22;400;53.550;9.932;2023-05-07T12:44:25;15.90;99.90
837;DHT22;400;53.550;9.932;2023-05-07T12:46:55;16.00;99.90
837;DHT22;400;53.550;9.932;2023-05-07T12:49:23;16.10;99.90
837;DHT22;400;53.550;9.932;2023-05-07T12:51:50;16.00;99.90
837;DHT22;400;53.550;9.932;2023-05-07T12:54:28;16.10;99.90
837;DHT22;400;53.550;9.932;2023-05-07T12:57:03;16.20;99.90
837;DHT22;400;53.550;9.932;2023-05-07T12:59:32;16.40;99.90
837;DHT22;400;53.550;9.932;2023-05-07T13:01:59;16.50;99.90
837;DHT22;400;53.550;9.932;2023-05-07T13:04:29;16.60;99.90
837;DHT22;400;53.550;9.932;2023-05-07T13:06:56;16.60;99.90
837;DHT22;400;53.550;9.932;2023-05-07T13:09:23;16.70;99.90
837;DHT22;400;53.550;9.932;2023-05-07T13:11:50;16.70;99.90
837;DHT22;400;53.550;9.932;2023-05-07T13:14:19;16.60;99.90
837;DHT22;400;53.550;9.932;2023-05-07T13:16:48;16.60;99.90
837;DHT22;400;53.550;9.932;2023-05-07T13:19:15;16.70;99.90
837;DHT22;400;53.550;9.932;2023-05-07T13:21:42;16.80;99.90
837;DHT22;400;53.550;9.932;2023-05-07T13:24:10;16.80;99.90
837;DHT22;400;53.550;9.932;2023-05-07T13:26:37;16.80;99.90
837;DHT22;400;53.550;9.932;2023-05-07T13:29:05;16.80;99.90
837;DHT22;400;53.550;9.932;2023-05-07T13:31:40;16.90;99.90
837;DHT22;400;53.550;9.932;2023-05-07T13:34:11;16.90;99.90
837;DHT22;400;53.550;9.932;2023-05-07T13:36:41;16.90;99.90
837;DHT22;400;53.550;9.932;2023-05-07T13:39:12;16.80;99.90
837;DHT22;400;53.550;9.932;2023-05-07T13:41:44;16.80;99.90
837;DHT22;400;53.550;9.932;2023-05-07T13:44:14;16.70;99.90
837;DHT22;400;53.550;9.932;2023-05-07T13:46:46;16.70;99.90
837;DHT22;400;53.550;9.932;2023-05-07T13:49:13;16.70;99.90
837;DHT22;400;53.550;9.932;2023-05-07T13:51:40;16.70;99.90
837;DHT22;400;53.550;9.932;2023-05-07T13:54:07;16.70;99.90
837;DHT22;400;53.550;9.932;2023-05-07T13:56:40;16.80;99.90
837;DHT22;400;53.550;9.932;2023-05-07T13:59:13;16.80;99.90
837;DHT22;400;53.550;9.932;2023-05-07T14:01:42;16.90;99.90
837;DHT22;400;53.550;9.932;2023-05-07T14:04:09;16.90;99.90
837;DHT22;400;53.550;9.932;2023-05-07T14:06:38;17.00;99.90
837;DHT22;400;53.550;9.932;2023-05-07T14:09:07;17.10;99.90
837;DHT22;400;53.550;9.932;2023-05-07T14:11:37;17.10;99.90
837;DHT22;400;53.550;9.932;2023-05-07T14:14:05;17.10;99.90
837;DHT22;400;53.550;9.932;2023-05-07T14:16:32;17.20;99.90
837;DHT22;400;53.550;9.932;2023-05-07T14:19:02;17.20;99.90
837;DHT22;400;53.550;9.932;2023-05-07T14:21:30;17.20;99.90
837;DHT22;400;53.550;9.932;2023-05-07T14:23:59;17.30;99.90
837;DHT22;400;53.550;9.932;2023-05-07T14:26:26;17.40;99.90
837;DHT22;400;53.550;9.932;2023-05-07T14:28:56;17.40;99.90
837;DHT22;400;53.550;9.932;2023-05-07T14:31:27;17.40;99.90
837;DHT22;400;53.550;9.932;2023-05-07T14:34:02;17.30;99.90
837;DHT22;400;53.550;9.932;2023-05-07T14:36:29;17.30;99.90
837;DHT22;400;53.550;9.932;2023-05-07T14:38:57;17.40;99.90
837;DHT22;400;53.550;9.932;2023-05-07T14:41:25;17.50;99.90
837;DHT22;400;53.550;9.932;2023-05-07T14:43:54;17.50;99.90
837;DHT22;400;53.550;9.932;2023-05-07T14:46:26;17.50;99.90
837;DHT22;400;53.550;9.932;2023-05-07T14:48:58;17.50;99.90
837;DHT22;400;53.550;9.932;2023-05-07T14:51:30;17.60;99.90
837;DHT22;400;53.550;9.932;2023-05-07T14:54:01;17.70;99.90
837;DHT22;400;53.550;9.932;2023-05-07T14:56:30;17.70;99.90
837;DHT22;400;53.550;9.932;2023-05-07T14:58:57;17.80;99.90
837;DHT22;400;53.550;9.932;2023-05-07T15:01:26;17.90;99.90
837;DHT22;400;53.550;9.932;2023-05-07T15:03:57;17.90;99.90
837;DHT22;400;53.550;9.932;2023-05-07T15:06:30;18.00;99.90
837;DHT22;400;53.550;9.932;2023-05-07T15:08:59;17.90;99.90
837;DHT22;400;53.550;9.932;2023-05-07T15:11:26;18.00;99.90
837;DHT22;400;53.550;9.932;2023-05-07T15:13:57;18.00;99.90
837;DHT22;400;53.550;9.932;2023-05-07T15:16:27;18.00;99.90
837;DHT22;400;53.550;9.932;2023-05-07T15:18:55;18.10;99.90
837;DHT22;400;53.550;9.932;2023-05-07T15:21:22;18.10;99.90
837;DHT22;400;53.550;9.932;2023-05-07T15:23:50;18.00;99.90
837;DHT22;400;53.550;9.932;2023-05-07T15:26:17;18.00;99.90
837;DHT22;400;53.550;9.932;2023-05-07T15:28:44;18.00;99.90
837;DHT22;400;53.550;9.932;2023-05-07T15:31:13;18.00;99.90
837;DHT22;400;53.550;9.932;2023-05-07T15:33:44;18.00;99.90
837;DHT22;400;53.550;9.932;2023-05-07T15:36:15;18.10;99.90
837;DHT22;400;53.550;9.932;2023-05-07T15:38:43;18.00;99.90
837;DHT22;400;53.550;9.932;2023-05-07T15:41:12;18.10;99.90
837;DHT22;400;53.550;9.932;2023-05-07T15:43:47;18.10;99.90
837;DHT22;400;53.550;9.932;2023-05-07T15:46:19;18.00;99.90
837;DHT22;400;53.550;9.932;2023-05-07T15:48:49;17.90;99.90
837;DHT22;400;53.550;9.932;2023-05-07T15:51:16;17.90;99.90
837;DHT22;400;53.550;9.932;2023-05-07T15:53:43;17.80;99.90
837;DHT22;400;53.550;9.932;2023-05-07T15:56:11;17.80;99.90
837;DHT22;400;53.550;9.932;2023-05-07T15:58:40;17.80;99.90
837;DHT22;400;53.550;9.932;2023-05-07T16:01:07;17.70;99.90
837;DHT22;400;53.550;9.932;2023-05-07T16:03:33;17.70;99.90
837;DHT22;400;53.550;9.932;2023-05-07T16:06:02;17.70;99.90
837;DHT22;400;53.550;9.932;2023-05-07T16:08:30;17.70;99.90
837;DHT22;400;53.550;9.932;2023-05-07T16:10:58;17.70;99.90
837;DHT22;400;53.550;9.932;2023-05-07T16:13:26;17.70;99.90
837;DHT22;400;53.550;9.932;2023-05-07T16:15:55;17.70;99.90
837;DHT22;400;53.550;9.932;2023-05-07T16:18:22;17.70;99.90
837;DHT22;400;53.550;9.932;2023-05-07T16:20:49;17.70;99.90
837;DHT22;400;53.550;9.932;2023-05-07T16:23:16;17.80;99.90
837;DHT22;400;53.550;9.932;2023-05-07T16:25:47;17.70;99.90
837;DHT22;400;53.550;9.932;2023-05-07T16:28:20;17.70;99.90
837;DHT22;400;53.550;9.932;2023-05-07T16:30:48;17.80;99.90
837;DHT22;400;53.550;9.932;2023-05-07T16:33:19;17.80;99.90
837;DHT22;400;53.550;9.932;2023-05-07T16:35:55;17.90;99.90
837;DHT22;400;53.550;9.932;2023-05-07T16:38:24;18.00;99.90
837;DHT22;400;53.550;9.932;2023-05-07T16:40:53;18.10;99.90
837;DHT22;400;53.550;9.932;2023-05-07T16:43:21;18.10;99.90
837;DHT22;400;53.550;9.932;2023-05-07T16:45:50;18.20;99.90
837;DHT22;400;53.550;9.932;2023-05-07T16:48:22;18.20;99.90